Skip to content

METEO PANTELLERIA

Condizioni e previsioni meteo su Pantelleria, ed i metar dell’aeroporto.

PANTELLERIA WEATHER

METAR

2023/01/31 18:50 LICG 311850Z 32011KT 9999 FEW020 12/07 Q1024
Il METAR (Aerodrome routine meteorological report) è un messaggio codificato che descrive le condizioni meteorologiche osservate da una stazione meteo. Attraverso una sua decodifica secondo gli standard WMO si ottengono le maggiori informazioni necessarie per la comprensione del tempo in atto. I codici METAR sono articolati in diversi gruppi e sono aggiornati con una cadenza oraria oppure, dove previsto, con una frequenza semioraria. Di seguito l’ultimo Metar rilasciato rappresentato in forma grafica.